Time;durP1;ratioP1;P1;durP2;ratioP2;P2;SDS_P1;SDS_P2;PMS_P1;PMS_P2;Temp;Humidity;BMP_temperature;BMP_pressure;BME280_temperature;BME280_humidity;BME280_pressure;Samples;Min_cycle;Max_cycle;Signal;HPM_P1;HPM_P2
2023/08/04 00:00:59;;;;;;;2.85;1.25;;;;;;;;;;6302119;22;20076;-86
2023/08/04 00:03:27;;;;;;;2.97;1.40;;;;;;;;;;6301148;22;20026;-85
2023/08/04 00:05:53;;;;;;;2.03;1.27;;;;;;;;;;6302107;22;20047;-85
2023/08/04 00:08:19;;;;;;;3.63;1.38;;;;;;;;;;6302165;22;20015;-85
2023/08/04 00:10:45;;;;;;;2.00;1.15;;;;;;;;;;6303593;22;20367;-85
2023/08/04 00:13:11;;;;;;;6.15;1.70;;;;;;;;;;6274053;22;20008;-86
2023/08/04 00:15:37;;;;;;;3.35;1.38;;;;;;;;;;6303409;22;20317;-86
2023/08/04 00:18:03;;;;;;;2.45;0.95;;;;;;;;;;6302217;22;20065;-85
2023/08/04 00:20:29;;;;;;;1.77;1.27;;;;;;;;;;6275124;22;20090;-85
2023/08/04 00:22:55;;;;;;;2.65;1.17;;;;;;;;;;6275263;22;20053;-86
2023/08/04 00:25:21;;;;;;;2.47;1.10;;;;;;;;;;6302989;22;20332;-86
2023/08/04 00:27:47;;;;;;;2.58;1.20;;;;;;;;;;6303314;22;20019;-86
2023/08/04 00:30:13;;;;;;;3.45;1.23;;;;;;;;;;6274835;22;20081;-86
2023/08/04 00:32:40;;;;;;;2.55;1.25;;;;;;;;;;6302689;22;20301;-85
2023/08/04 00:35:06;;;;;;;2.53;1.23;;;;;;;;;;6302391;22;20090;-85
2023/08/04 00:37:35;;;;;;;2.92;1.60;;;;;;;;;;6302783;22;20012;-86
2023/08/04 00:40:01;;;;;;;2.97;1.27;;;;;;;;;;6276113;22;20039;-86
2023/08/04 00:42:27;;;;;;;1.83;1.00;;;;;;;;;;6304679;22;20436;-86
2023/08/04 00:44:53;;;;;;;2.10;1.65;;;;;;;;;;6304320;22;20011;-86
2023/08/04 00:47:20;;;;;;;7.25;1.85;;;;;;;;;;6303490;22;20341;-85
2023/08/04 00:49:48;;;;;;;2.40;1.63;;;;;;;;;;6303808;22;20011;-85
2023/08/04 00:52:14;;;;;;;2.75;1.38;;;;;;;;;;6304629;22;20014;-86
2023/08/04 00:54:40;;;;;;;3.08;1.10;;;;;;;;;;6277083;22;20022;-86
2023/08/04 00:57:06;;;;;;;2.30;1.70;;;;;;;;;;6303746;22;20056;-86
2023/08/04 00:59:32;;;;;;;4.18;1.55;;;;;;;;;;6304358;22;20011;-86
2023/08/04 01:01:58;;;;;;;3.85;1.40;;;;;;;;;;6303498;22;20332;-86
2023/08/04 01:04:24;;;;;;;3.60;1.23;;;;;;;;;;6303867;22;20019;-85
2023/08/04 01:07:00;;;;;;;1.90;1.40;;;;;;;;;;6304750;22;20011;-86
2023/08/04 01:09:41;;;;;;;2.72;1.55;;;;;;;;;;6277505;22;20038;-86
2023/08/04 01:12:07;;;;;;;2.60;1.17;;;;;;;;;;6275436;22;20050;-86
2023/08/04 01:14:33;;;;;;;2.45;1.50;;;;;;;;;;6276100;22;20475;-86
2023/08/04 01:17:03;;;;;;;4.13;1.50;;;;;;;;;;6302791;22;20087;-86
2023/08/04 01:19:30;;;;;;;3.22;1.30;;;;;;;;;;6303835;22;20015;-86
2023/08/04 01:21:55;;;;;;;1.67;1.58;;;;;;;;;;6275641;22;20022;-86
2023/08/04 01:24:21;;;;;;;2.72;1.13;;;;;;;;;;6275501;22;20347;-86
2023/08/04 01:26:48;;;;;;;3.38;2.10;;;;;;;;;;6275737;22;20023;-85
2023/08/04 01:29:15;;;;;;;2.35;1.63;;;;;;;;;;6303559;22;20026;-86
2023/08/04 01:31:42;;;;;;;2.08;1.52;;;;;;;;;;6303938;22;20033;-86
2023/08/04 01:34:08;;;;;;;3.17;1.48;;;;;;;;;;6275464;22;20043;-86
2023/08/04 01:36:34;;;;;;;3.53;1.20;;;;;;;;;;6303415;22;20011;-85
2023/08/04 01:39:00;;;;;;;3.03;1.15;;;;;;;;;;6302750;22;20007;-85
2023/08/04 01:41:26;;;;;;;2.88;1.42;;;;;;;;;;6301728;22;20018;-86
2023/08/04 01:43:52;;;;;;;3.33;1.20;;;;;;;;;;6303255;22;20022;-86
2023/08/04 01:46:18;;;;;;;1.50;1.40;;;;;;;;;;6302351;22;20011;-86
2023/08/04 01:48:44;;;;;;;2.92;1.60;;;;;;;;;;6303872;22;20011;-86
2023/08/04 01:51:10;;;;;;;3.20;1.08;;;;;;;;;;6302890;22;20007;-87
2023/08/04 01:53:36;;;;;;;3.75;1.45;;;;;;;;;;6303927;22;20012;-86
2023/08/04 01:56:02;;;;;;;2.10;1.20;;;;;;;;;;6303008;22;20022;-86
2023/08/04 01:58:28;;;;;;;3.40;1.50;;;;;;;;;;6275727;22;20068;-86
2023/08/04 02:00:54;;;;;;;5.13;1.45;;;;;;;;;;6275383;22;20411;-86
2023/08/04 02:03:20;;;;;;;2.65;1.45;;;;;;;;;;6275483;22;20015;-86
2023/08/04 02:05:48;;;;;;;3.92;1.20;;;;;;;;;;6303579;22;20462;-85
2023/08/04 02:08:14;;;;;;;1.55;1.23;;;;;;;;;;6302917;22;20026;-86
2023/08/04 02:10:47;;;;;;;2.58;1.58;;;;;;;;;;6275817;22;20017;-85
2023/08/04 02:13:13;;;;;;;3.08;1.25;;;;;;;;;;6301635;22;20122;-84
2023/08/04 02:15:39;;;;;;;3.42;0.95;;;;;;;;;;6304022;22;20053;-85
2023/08/04 02:18:05;;;;;;;3.63;1.55;;;;;;;;;;6301684;22;20403;-85
2023/08/04 02:20:31;;;;;;;1.23;0.90;;;;;;;;;;6303601;22;20015;-85
2023/08/04 02:22:57;;;;;;;3.65;1.15;;;;;;;;;;6274473;22;20068;-85
2023/08/04 02:25:23;;;;;;;1.95;1.40;;;;;;;;;;6250708;22;20015;-85
2023/08/04 02:27:49;;;;;;;2.55;1.10;;;;;;;;;;6302637;22;20011;-85
2023/08/04 02:30:16;;;;;;;3.55;1.50;;;;;;;;;;6302681;22;20053;-85
2023/08/04 02:32:41;;;;;;;1.75;1.27;;;;;;;;;;6303279;22;20379;-85
2023/08/04 02:35:08;;;;;;;2.35;1.00;;;;;;;;;;6302470;22;20044;-85
2023/08/04 02:37:34;;;;;;;2.53;1.35;;;;;;;;;;6302847;22;20015;-85
2023/08/04 02:40:00;;;;;;;2.03;1.10;;;;;;;;;;6275074;22;20022;-85
2023/08/04 02:42:26;;;;;;;2.90;1.40;;;;;;;;;;6302023;22;20363;-85
2023/08/04 02:44:55;;;;;;;1.98;0.82;;;;;;;;;;6275091;22;20321;-85
2023/08/04 02:47:21;;;;;;;3.83;1.77;;;;;;;;;;6275486;22;20015;-85
2023/08/04 02:49:47;;;;;;;2.47;1.40;;;;;;;;;;6303651;22;20015;-85
2023/08/04 02:52:16;;;;;;;2.42;1.20;;;;;;;;;;6301729;22;20011;-85
2023/08/04 02:54:43;;;;;;;1.70;1.02;;;;;;;;;;6303124;22;20011;-85
2023/08/04 02:57:09;;;;;;;2.88;1.40;;;;;;;;;;6274292;22;20368;-85
2023/08/04 02:59:36;;;;;;;2.50;1.20;;;;;;;;;;6303585;22;20013;-85
2023/08/04 03:02:02;;;;;;;5.03;1.30;;;;;;;;;;6274551;22;20015;-85
2023/08/04 03:04:28;;;;;;;4.60;1.17;;;;;;;;;;6274758;22;20047;-84
2023/08/04 03:06:54;;;;;;;3.03;1.10;;;;;;;;;;6302774;22;20355;-85
2023/08/04 03:09:20;;;;;;;3.22;1.23;;;;;;;;;;6275452;22;20011;-84
2023/08/04 03:11:46;;;;;;;1.73;0.85;;;;;;;;;;6301838;22;20105;-85
2023/08/04 03:14:12;;;;;;;1.65;0.80;;;;;;;;;;6274295;22;20065;-85
2023/08/04 03:16:38;;;;;;;2.03;0.93;;;;;;;;;;6303037;22;20086;-85
2023/08/04 03:19:04;;;;;;;3.03;1.15;;;;;;;;;;6301556;22;20458;-84
2023/08/04 03:21:30;;;;;;;2.47;1.23;;;;;;;;;;6302925;22;20038;-85
2023/08/04 03:23:56;;;;;;;2.25;0.93;;;;;;;;;;6302539;22;20086;-85
2023/08/04 03:26:22;;;;;;;3.63;0.98;;;;;;;;;;6274855;22;20011;-85
2023/08/04 03:28:48;;;;;;;2.70;1.00;;;;;;;;;;6303397;22;20324;-85
2023/08/04 03:31:14;;;;;;;1.67;0.88;;;;;;;;;;6302176;22;20040;-86
2023/08/04 03:33:40;;;;;;;1.52;0.80;;;;;;;;;;6302821;22;20094;-85
2023/08/04 03:36:06;;;;;;;1.38;1.10;;;;;;;;;;6300837;22;20125;-85
2023/08/04 03:38:32;;;;;;;1.55;0.90;;;;;;;;;;6275264;22;20015;-85
2023/08/04 03:40:58;;;;;;;1.98;0.85;;;;;;;;;;6301103;22;20020;-85
2023/08/04 03:43:24;;;;;;;0.73;0.60;;;;;;;;;;6275481;22;20049;-85
2023/08/04 03:45:50;;;;;;;1.55;0.85;;;;;;;;;;6301551;22;20015;-86
2023/08/04 03:48:16;;;;;;;2.60;0.98;;;;;;;;;;6301119;22;20065;-85
2023/08/04 03:50:44;;;;;;;1.27;0.90;;;;;;;;;;6302443;22;20007;-86
2023/08/04 03:53:10;;;;;;;2.58;0.90;;;;;;;;;;6301828;22;20020;-86
2023/08/04 03:55:36;;;;;;;1.67;0.90;;;;;;;;;;6302088;22;20018;-86
2023/08/04 03:58:02;;;;;;;1.25;0.70;;;;;;;;;;6302490;22;20057;-85
2023/08/04 04:00:28;;;;;;;3.00;0.93;;;;;;;;;;6302371;22;20454;-86
2023/08/04 04:02:54;;;;;;;2.20;1.45;;;;;;;;;;6300999;22;20015;-86
2023/08/04 04:05:20;;;;;;;1.13;0.70;;;;;;;;;;6298973;22;20011;-85
2023/08/04 04:07:46;;;;;;;1.98;0.65;;;;;;;;;;6302766;22;20082;-85
2023/08/04 04:10:12;;;;;;;2.45;0.82;;;;;;;;;;6273519;22;20517;-86
2023/08/04 04:12:38;;;;;;;2.25;1.00;;;;;;;;;;6303343;22;20090;-85
2023/08/04 04:15:04;;;;;;;1.00;0.85;;;;;;;;;;6303466;22;20452;-85
2023/08/04 04:17:31;;;;;;;0.93;0.65;;;;;;;;;;6304276;22;20018;-85
2023/08/04 04:19:57;;;;;;;1.40;1.23;;;;;;;;;;6303395;22;20026;-85
2023/08/04 04:22:23;;;;;;;3.13;1.00;;;;;;;;;;6303299;22;20008;-85
2023/08/04 04:24:49;;;;;;;0.70;0.60;;;;;;;;;;6303879;22;20516;-85
2023/08/04 04:27:15;;;;;;;1.42;0.80;;;;;;;;;;6276187;22;20095;-85
2023/08/04 04:29:41;;;;;;;1.55;0.70;;;;;;;;;;6276907;22;20068;-89
2023/08/04 04:32:07;;;;;;;2.25;0.70;;;;;;;;;;6303117;22;20378;-88
2023/08/04 04:34:33;;;;;;;1.40;0.63;;;;;;;;;;6300008;22;20016;-87
2023/08/04 04:36:59;;;;;;;1.77;1.02;;;;;;;;;;6302595;22;20086;-86
2023/08/04 04:39:26;;;;;;;1.30;0.75;;;;;;;;;;6303611;22;20026;-87
2023/08/04 04:41:52;;;;;;;2.95;0.98;;;;;;;;;;6304070;22;20042;-87
2023/08/04 04:44:18;;;;;;;1.25;0.73;;;;;;;;;;6250163;22;20015;-87
2023/08/04 04:46:44;;;;;;;1.52;0.60;;;;;;;;;;6276837;22;20019;-88
2023/08/04 04:49:10;;;;;;;1.95;0.77;;;;;;;;;;6274847;22;20085;-91
2023/08/04 04:51:36;;;;;;;1.00;0.80;;;;;;;;;;6308256;22;20379;-94
2023/08/04 04:54:02;;;;;;;3.00;0.65;;;;;;;;;;6275982;22;20018;-89
2023/08/04 04:56:28;;;;;;;1.10;0.70;;;;;;;;;;6304625;22;20015;-84
2023/08/04 04:58:54;;;;;;;1.05;0.63;;;;;;;;;;6276485;22;20318;-90
2023/08/04 05:01:20;;;;;;;0.95;0.60;;;;;;;;;;6276986;22;20019;-90
2023/08/04 05:03:46;;;;;;;2.63;0.52;;;;;;;;;;6304710;22;20022;-89
2023/08/04 05:06:12;;;;;;;0.60;0.50;;;;;;;;;;6276706;22;20335;-89
2023/08/04 05:08:38;;;;;;;1.50;0.88;;;;;;;;;;6277272;22;20019;-90
2023/08/04 05:11:04;;;;;;;1.38;0.63;;;;;;;;;;6275900;22;20022;-91
2023/08/04 05:13:30;;;;;;;0.85;0.68;;;;;;;;;;6301955;22;20038;-91
2023/08/04 05:15:56;;;;;;;2.35;0.75;;;;;;;;;;6301646;22;20011;-89
2023/08/04 05:18:22;;;;;;;1.58;0.57;;;;;;;;;;6276387;22;20019;-90
2023/08/04 05:20:48;;;;;;;3.55;1.02;;;;;;;;;;6274596;22;20007;-89
2023/08/04 05:23:15;;;;;;;0.88;0.75;;;;;;;;;;6276642;22;20073;-90
2023/08/04 05:25:41;;;;;;;0.93;0.63;;;;;;;;;;6304117;22;20014;-90
2023/08/04 05:28:21;;;;;;;2.53;0.88;;;;;;;;;;6302385;22;20019;-88
2023/08/04 05:30:47;;;;;;;2.15;0.88;;;;;;;;;;6304920;22;20025;-90
2023/08/04 05:33:13;;;;;;;1.75;1.10;;;;;;;;;;6304384;22;20488;-88
2023/08/04 05:35:40;;;;;;;1.75;0.90;;;;;;;;;;6275931;22;20015;-89
2023/08/04 05:38:06;;;;;;;3.88;1.23;;;;;;;;;;6302716;22;20018;-88
2023/08/04 05:40:35;;;;;;;2.97;1.00;;;;;;;;;;6303341;22;20093;-87
2023/08/04 05:43:01;;;;;;;1.25;0.98;;;;;;;;;;6303564;22;20041;-85
2023/08/04 05:45:27;;;;;;;3.17;1.20;;;;;;;;;;6303079;22;20026;-86
2023/08/04 05:47:53;;;;;;;1.55;1.00;;;;;;;;;;6302969;22;20086;-85
2023/08/04 05:50:19;;;;;;;1.50;0.80;;;;;;;;;;6303198;22;20038;-86
2023/08/04 05:52:45;;;;;;;1.40;0.80;;;;;;;;;;6304236;22;20086;-85
2023/08/04 05:55:12;;;;;;;1.60;0.98;;;;;;;;;;6302027;22;20047;-85
2023/08/04 05:57:38;;;;;;;2.05;1.02;;;;;;;;;;6276451;22;20132;-86
2023/08/04 06:00:05;;;;;;;2.15;0.88;;;;;;;;;;6303128;22;20034;-83
2023/08/04 06:02:31;;;;;;;2.58;1.30;;;;;;;;;;6302666;22;20167;-89
2023/08/04 06:04:57;;;;;;;1.48;0.80;;;;;;;;;;6301337;22;20022;-88
2023/08/04 06:07:23;;;;;;;1.80;1.20;;;;;;;;;;6275759;22;20015;-86
2023/08/04 06:09:49;;;;;;;4.30;1.73;;;;;;;;;;6302652;22;20444;-84
2023/08/04 06:12:15;;;;;;;2.47;0.95;;;;;;;;;;6302748;22;20015;-84
2023/08/04 06:14:43;;;;;;;1.33;0.90;;;;;;;;;;6303269;22;20098;-85
2023/08/04 06:17:09;;;;;;;1.08;0.90;;;;;;;;;;6302086;22;20022;-88
2023/08/04 06:19:35;;;;;;;1.17;0.70;;;;;;;;;;6274970;22;20019;-89
2023/08/04 06:22:01;;;;;;;3.17;1.30;;;;;;;;;;6301975;22;20014;-89
2023/08/04 06:24:27;;;;;;;4.20;1.30;;;;;;;;;;6275752;22;20023;-88
2023/08/04 06:26:53;;;;;;;3.72;1.20;;;;;;;;;;6276480;22;20068;-88
2023/08/04 06:29:19;;;;;;;3.08;0.80;;;;;;;;;;6303716;22;20011;-90
2023/08/04 06:31:45;;;;;;;2.45;0.85;;;;;;;;;;6275898;22;20076;-90
2023/08/04 06:34:12;;;;;;;1.17;1.00;;;;;;;;;;6302032;22;20019;-89
2023/08/04 06:36:38;;;;;;;5.82;1.20;;;;;;;;;;6303651;22;20021;-88
2023/08/04 06:39:04;;;;;;;2.75;0.93;;;;;;;;;;6275122;22;20072;-89
2023/08/04 06:41:30;;;;;;;1.52;1.00;;;;;;;;;;6303693;22;20077;-90
2023/08/04 06:43:56;;;;;;;1.23;0.82;;;;;;;;;;6303193;22;20098;-93
2023/08/04 06:46:22;;;;;;;2.80;1.00;;;;;;;;;;6274490;22;20199;-88
2023/08/04 06:48:48;;;;;;;3.00;1.20;;;;;;;;;;6275696;22;20340;-89
2023/08/04 06:51:14;;;;;;;1.83;0.80;;;;;;;;;;6303181;22;20019;-88
2023/08/04 06:53:40;;;;;;;2.53;1.02;;;;;;;;;;6276035;22;20026;-87
2023/08/04 06:56:06;;;;;;;2.40;1.05;;;;;;;;;;6275451;22;20034;-88
2023/08/04 06:58:32;;;;;;;1.58;0.95;;;;;;;;;;6303309;22;20008;-89
2023/08/04 07:00:58;;;;;;;2.60;0.95;;;;;;;;;;6302441;22;20428;-89
2023/08/04 07:03:24;;;;;;;1.83;1.00;;;;;;;;;;6274855;22;20015;-90
2023/08/04 07:05:50;;;;;;;4.13;1.13;;;;;;;;;;6302938;22;20015;-88
2023/08/04 07:08:16;;;;;;;3.08;1.10;;;;;;;;;;6302339;22;20333;-88
2023/08/04 07:10:42;;;;;;;2.55;1.08;;;;;;;;;;6275285;22;20026;-87
2023/08/04 07:13:08;;;;;;;2.50;0.70;;;;;;;;;;6274804;22;20037;-88
2023/08/04 07:15:34;;;;;;;1.70;1.00;;;;;;;;;;6302709;22;20328;-84
2023/08/04 07:18:00;;;;;;;2.60;0.90;;;;;;;;;;6249636;22;20011;-90
2023/08/04 07:20:27;;;;;;;1.20;0.90;;;;;;;;;;6274919;22;20061;-88
2023/08/04 07:22:53;;;;;;;1.10;0.80;;;;;;;;;;6303588;22;20018;-90
2023/08/04 07:25:19;;;;;;;2.47;0.90;;;;;;;;;;6303336;22;20070;-91
2023/08/04 07:27:45;;;;;;;1.48;0.82;;;;;;;;;;6303838;22;20030;-92
2023/08/04 07:30:13;;;;;;;1.70;0.93;;;;;;;;;;6275369;22;20413;-89
2023/08/04 07:32:39;;;;;;;2.28;1.08;;;;;;;;;;6303147;22;20015;-90
2023/08/04 07:35:06;;;;;;;2.63;0.77;;;;;;;;;;6274941;22;20026;-91
2023/08/04 07:37:32;;;;;;;2.65;1.00;;;;;;;;;;6276445;22;20018;-91
2023/08/04 07:39:58;;;;;;;1.65;1.00;;;;;;;;;;6303008;22;20057;-90
2023/08/04 07:42:25;;;;;;;2.05;0.80;;;;;;;;;;6303567;22;20442;-92
2023/08/04 07:44:51;;;;;;;3.45;1.38;;;;;;;;;;6276043;22;20021;-90
2023/08/04 07:47:17;;;;;;;3.55;1.38;;;;;;;;;;6302844;22;20394;-91
2023/08/04 07:49:43;;;;;;;2.40;0.70;;;;;;;;;;6305476;22;20003;-93
2023/08/04 07:52:09;;;;;;;2.30;0.80;;;;;;;;;;6277582;22;20519;-91
2023/08/04 07:54:35;;;;;;;1.75;0.70;;;;;;;;;;6305861;22;20015;-90
2023/08/04 07:57:03;;;;;;;1.85;0.98;;;;;;;;;;6305355;22;20011;-90
2023/08/04 07:59:29;;;;;;;0.68;0.65;;;;;;;;;;6307101;22;20051;-90
2023/08/04 08:01:55;;;;;;;1.52;1.20;;;;;;;;;;6277385;22;20026;-89
2023/08/04 08:04:21;;;;;;;2.33;1.05;;;;;;;;;;6303963;22;20371;-86
2023/08/04 08:06:47;;;;;;;0.98;0.77;;;;;;;;;;6277619;22;20023;-85
2023/08/04 08:09:12;;;;;;;2.67;1.02;;;;;;;;;;6302839;22;20011;-88
2023/08/04 08:11:39;;;;;;;2.38;1.10;;;;;;;;;;6278025;22;20019;-91
2023/08/04 08:14:05;;;;;;;1.30;1.02;;;;;;;;;;6277159;22;20473;-90
2023/08/04 08:16:31;;;;;;;1.77;0.98;;;;;;;;;;6275202;22;20019;-87
2023/08/04 08:18:57;;;;;;;1.70;0.70;;;;;;;;;;6303174;22;20030;-87
2023/08/04 08:21:23;;;;;;;1.02;0.60;;;;;;;;;;6304407;22;20007;-87
2023/08/04 08:23:49;;;;;;;2.20;1.00;;;;;;;;;;6305102;22;20015;-85
2023/08/04 08:26:15;;;;;;;1.92;0.77;;;;;;;;;;6303455;22;20485;-86
2023/08/04 08:28:41;;;;;;;1.65;0.93;;;;;;;;;;6304947;22;20011;-85
2023/08/04 08:31:07;;;;;;;1.13;0.60;;;;;;;;;;6302163;22;20011;-84
2023/08/04 08:33:33;;;;;;;1.98;1.35;;;;;;;;;;6251123;22;20347;-84
2023/08/04 08:35:59;;;;;;;1.58;1.00;;;;;;;;;;6276705;22;20020;-85
2023/08/04 08:38:25;;;;;;;2.75;1.10;;;;;;;;;;6276523;22;20415;-85
2023/08/04 08:40:51;;;;;;;2.28;0.82;;;;;;;;;;6250504;22;20049;-84
2023/08/04 08:43:17;;;;;;;2.05;1.10;;;;;;;;;;6303687;22;20086;-82
2023/08/04 08:45:44;;;;;;;1.25;1.00;;;;;;;;;;6275578;22;20027;-82
2023/08/04 08:48:11;;;;;;;1.85;0.75;;;;;;;;;;6302791;22;20019;-82
2023/08/04 08:50:39;;;;;;;1.27;0.80;;;;;;;;;;6304649;22;20014;-82
2023/08/04 08:53:16;;;;;;;2.20;1.35;;;;;;;;;;6300925;22;20026;-82
2023/08/04 08:55:43;;;;;;;1.33;0.90;;;;;;;;;;6304342;22;20101;-82
2023/08/04 08:58:09;;;;;;;3.25;1.15;;;;;;;;;;6275514;22;20421;-82
2023/08/04 09:00:35;;;;;;;2.13;1.10;;;;;;;;;;6303019;22;20015;-81
2023/08/04 09:03:03;;;;;;;1.85;1.00;;;;;;;;;;6303128;22;20086;-79
2023/08/04 09:05:31;;;;;;;1.95;1.20;;;;;;;;;;6302932;22;20052;-82
2023/08/04 09:07:57;;;;;;;2.75;1.00;;;;;;;;;;6302865;22;20341;-82
2023/08/04 09:10:23;;;;;;;2.67;1.25;;;;;;;;;;6300299;22;20076;-84
2023/08/04 09:12:51;;;;;;;1.13;0.60;;;;;;;;;;6275982;22;20016;-84
2023/08/04 09:15:17;;;;;;;2.35;1.13;;;;;;;;;;6302586;22;20043;-83
2023/08/04 09:17:44;;;;;;;1.00;0.90;;;;;;;;;;6303732;22;20019;-83
2023/08/04 09:20:11;;;;;;;1.92;1.00;;;;;;;;;;6302252;22;20019;-83
2023/08/04 09:22:42;;;;;;;1.48;0.90;;;;;;;;;;6276612;22;20090;-83
2023/08/04 09:25:08;;;;;;;1.35;0.80;;;;;;;;;;6302533;22;20069;-82
2023/08/04 09:27:34;;;;;;;2.15;0.80;;;;;;;;;;6275532;22;20049;-85
2023/08/04 09:30:01;;;;;;;1.63;1.10;;;;;;;;;;6275408;22;20007;-88
2023/08/04 09:32:28;;;;;;;2.03;1.10;;;;;;;;;;6303264;22;20026;-88
2023/08/04 09:35:05;;;;;;;1.50;0.93;;;;;;;;;;6275913;22;20085;-88
2023/08/04 09:37:32;;;;;;;1.58;1.00;;;;;;;;;;6304046;22;20019;-87
2023/08/04 09:39:59;;;;;;;1.67;0.82;;;;;;;;;;6302978;22;20016;-87
2023/08/04 09:42:25;;;;;;;1.85;0.98;;;;;;;;;;6302931;22;20023;-88
2023/08/04 09:44:52;;;;;;;1.00;0.90;;;;;;;;;;6302808;22;20019;-84
2023/08/04 09:47:21;;;;;;;2.88;0.80;;;;;;;;;;6301120;22;20082;-86
2023/08/04 09:49:47;;;;;;;2.38;0.80;;;;;;;;;;6302053;22;20015;-86
2023/08/04 09:52:19;;;;;;;0.93;0.70;;;;;;;;;;6302130;22;20479;-86
2023/08/04 09:54:45;;;;;;;0.70;0.70;;;;;;;;;;6303324;22;20015;-85
2023/08/04 09:57:11;;;;;;;2.38;1.00;;;;;;;;;;6300728;22;20022;-86
2023/08/04 09:59:38;;;;;;;2.25;1.10;;;;;;;;;;6302296;22;20328;-86
2023/08/04 10:02:04;;;;;;;2.78;1.27;;;;;;;;;;6302109;22;20015;-86
2023/08/04 10:04:30;;;;;;;2.08;1.10;;;;;;;;;;6303346;22;20175;-85
2023/08/04 10:06:57;;;;;;;2.03;1.35;;;;;;;;;;6302882;22;20030;-85
2023/08/04 10:09:24;;;;;;;1.88;1.38;;;;;;;;;;6275043;22;20018;-85
2023/08/04 10:11:50;;;;;;;1.75;1.10;;;;;;;;;;6302678;22;20018;-86
2023/08/04 10:14:16;;;;;;;2.13;1.50;;;;;;;;;;6302441;22;20015;-91
2023/08/04 10:16:44;;;;;;;3.53;1.38;;;;;;;;;;6303340;22;20402;-87
2023/08/04 10:19:12;;;;;;;2.47;1.10;;;;;;;;;;6301863;22;20023;-89
2023/08/04 10:21:40;;;;;;;1.25;1.15;;;;;;;;;;6302049;22;20016;-86
2023/08/04 10:24:07;;;;;;;1.60;1.00;;;;;;;;;;6304275;22;20111;-88
2023/08/04 10:26:52;;;;;;;3.00;1.45;;;;;;;;;;6277533;22;20458;-92
2023/08/04 10:29:19;;;;;;;1.30;1.00;;;;;;;;;;6305648;22;20015;-92
2023/08/04 10:31:47;;;;;;;2.65;1.08;;;;;;;;;;6304277;22;20042;-86
2023/08/04 10:34:28;;;;;;;3.17;1.20;;;;;;;;;;6301394;22;20023;-89
2023/08/04 10:37:04;;;;;;;3.63;1.33;;;;;;;;;;6303047;22;20015;-89
2023/08/04 10:39:40;;;;;;;2.72;1.23;;;;;;;;;;6302377;22;20015;-86
2023/08/04 10:42:06;;;;;;;;;;;;;;;;;;6303364;22;20072;-89
2023/08/04 10:44:48;;;;;;;2.97;1.17;;;;;;;;;;6303266;22;19949;-88
2023/08/04 10:47:14;;;;;;;1.83;1.10;;;;;;;;;;6275443;22;20022;-89
2023/08/04 10:49:40;;;;;;;3.08;1.17;;;;;;;;;;6302309;22;20015;-91
2023/08/04 10:52:06;;;;;;;1.35;1.00;;;;;;;;;;6305386;22;20019;-92
2023/08/04 10:54:33;;;;;;;2.30;1.30;;;;;;;;;;6304158;22;20011;-92
2023/08/04 10:56:59;;;;;;;2.47;1.30;;;;;;;;;;6301183;22;20011;-89
2023/08/04 10:59:25;;;;;;;3.78;1.65;;;;;;;;;;6300532;22;20011;-87
2023/08/04 11:01:51;;;;;;;3.83;1.23;;;;;;;;;;6303072;22;20014;-87
2023/08/04 11:04:18;;;;;;;1.77;1.48;;;;;;;;;;6302519;22;20015;-89
2023/08/04 11:06:45;;;;;;;1.75;1.30;;;;;;;;;;6275304;22;20023;-88
2023/08/04 11:09:11;;;;;;;1.40;1.00;;;;;;;;;;6300953;22;20071;-89
2023/08/04 11:11:37;;;;;;;4.07;1.67;;;;;;;;;;6275420;22;20015;-92
2023/08/04 11:14:07;;;;;;;3.72;1.30;;;;;;;;;;6302228;22;20091;-94
2023/08/04 11:16:35;;;;;;;2.50;1.05;;;;;;;;;;6304784;22;20053;-94
2023/08/04 11:19:03;;;;;;;5.22;1.50;;;;;;;;;;6301098;22;20082;-87
2023/08/04 11:21:30;;;;;;;2.33;1.00;;;;;;;;;;6272704;22;20015;-93
2023/08/04 11:23:56;;;;;;;1.95;1.00;;;;;;;;;;6301674;22;20379;-94
2023/08/04 11:26:23;;;;;;;1.30;0.73;;;;;;;;;;6307505;22;20140;-96
2023/08/04 11:28:49;;;;;;;2.42;1.10;;;;;;;;;;6311045;22;20029;-92
2023/08/04 11:31:20;;;;;;;1.40;1.00;;;;;;;;;;6283253;22;20352;-96
2023/08/04 11:33:46;;;;;;;2.08;0.70;;;;;;;;;;6310913;22;20011;-96
2023/08/04 11:36:12;;;;;;;2.10;1.00;;;;;;;;;;6285592;22;20067;-96
2023/08/04 11:38:38;;;;;;;3.20;1.13;;;;;;;;;;6309996;22;20015;-95
2023/08/04 11:41:08;;;;;;;1.23;1.00;;;;;;;;;;6287781;22;20329;-92
2023/08/04 11:43:34;;;;;;;2.17;1.15;;;;;;;;;;6315039;22;20011;-95
2023/08/04 11:46:03;;;;;;;3.03;1.13;;;;;;;;;;6322426;22;20094;-96
2023/08/04 11:48:30;;;;;;;2.92;0.90;;;;;;;;;;6317168;22;20068;-93
2023/08/04 11:50:59;;;;;;;1.77;0.90;;;;;;;;;;6319572;22;20038;-96
2023/08/04 11:53:25;;;;;;;0.88;0.80;;;;;;;;;;6286221;22;20448;-93
2023/08/04 11:56:07;;;;;;;2.85;1.20;;;;;;;;;;6313756;22;20359;-94
2023/08/04 11:58:39;;;;;;;1.15;1.05;;;;;;;;;;6293308;22;20020;-94
2023/08/04 12:01:06;;;;;;;2.05;0.95;;;;;;;;;;6285975;22;20247;-91
2023/08/04 12:03:45;;;;;;;1.80;1.05;;;;;;;;;;6303972;22;20015;-89
2023/08/04 12:06:15;;;;;;;1.40;1.00;;;;;;;;;;6301491;22;20011;-89
2023/08/04 12:08:47;;;;;;;3.63;1.17;;;;;;;;;;6301330;22;20011;-88
2023/08/04 12:11:13;;;;;;;2.85;1.20;;;;;;;;;;6301397;22;20046;-88
2023/08/04 12:13:40;;;;;;;3.65;1.20;;;;;;;;;;6302830;22;20022;-87
2023/08/04 12:16:06;;;;;;;4.38;1.40;;;;;;;;;;6302167;22;20011;-89
2023/08/04 12:18:32;;;;;;;4.18;1.52;;;;;;;;;;6301468;22;20018;-90
2023/08/04 12:20:58;;;;;;;2.10;1.08;;;;;;;;;;6299481;22;20011;-87
2023/08/04 12:23:24;;;;;;;3.22;1.35;;;;;;;;;;6299725;22;20069;-91
2023/08/04 12:25:50;;;;;;;3.85;1.50;;;;;;;;;;6300814;22;20121;-89
2023/08/04 12:28:16;;;;;;;4.15;1.80;;;;;;;;;;6300536;22;20459;-89
2023/08/04 12:30:42;;;;;;;2.72;1.25;;;;;;;;;;6301880;22;20015;-88
2023/08/04 12:33:08;;;;;;;3.17;1.65;;;;;;;;;;6302510;22;20019;-89
2023/08/04 12:35:34;;;;;;;4.20;1.58;;;;;;;;;;6277507;22;20015;-87
2023/08/04 12:38:04;;;;;;;5.13;1.67;;;;;;;;;;6276497;22;20011;-89
2023/08/04 12:40:33;;;;;;;3.95;1.55;;;;;;;;;;6276982;22;20019;-89
2023/08/04 12:43:00;;;;;;;2.20;1.10;;;;;;;;;;6307150;22;20050;-96
2023/08/04 12:45:26;;;;;;;3.03;1.40;;;;;;;;;;6289434;22;20080;-91
2023/08/04 12:47:52;;;;;;;1.50;1.10;;;;;;;;;;6315042;22;20015;-90
2023/08/04 12:50:18;;;;;;;1.60;1.35;;;;;;;;;;6309959;22;20324;-91
2023/08/04 12:52:44;;;;;;;4.53;1.13;;;;;;;;;;6306438;22;20014;-93
2023/08/04 12:55:10;;;;;;;1.08;0.80;;;;;;;;;;6303231;22;20015;-86
2023/08/04 12:57:37;;;;;;;1.75;1.00;;;;;;;;;;6304896;22;20385;-91
2023/08/04 13:00:03;;;;;;;2.95;1.30;;;;;;;;;;6275948;22;20011;-89
2023/08/04 13:02:29;;;;;;;2.92;1.20;;;;;;;;;;6303367;22;20374;-86
2023/08/04 13:04:55;;;;;;;2.00;0.90;;;;;;;;;;6303375;22;20050;-87
2023/08/04 13:07:21;;;;;;;2.78;1.02;;;;;;;;;;6275677;22;20038;-84
2023/08/04 13:09:47;;;;;;;1.48;1.00;;;;;;;;;;6303063;22;20038;-87
2023/08/04 13:12:13;;;;;;;2.38;1.00;;;;;;;;;;6302937;22;20007;-89
2023/08/04 13:14:39;;;;;;;2.72;1.30;;;;;;;;;;6306579;22;20037;-91
2023/08/04 13:17:05;;;;;;;1.90;1.00;;;;;;;;;;6304183;22;20018;-92
2023/08/04 13:19:32;;;;;;;2.15;1.27;;;;;;;;;;6301690;22;20423;-87
2023/08/04 13:21:58;;;;;;;1.70;1.00;;;;;;;;;;6275596;22;20015;-90
2023/08/04 13:24:24;;;;;;;2.00;0.85;;;;;;;;;;6304321;22;20503;-88
2023/08/04 13:26:52;;;;;;;2.75;0.95;;;;;;;;;;6304869;22;20047;-91
2023/08/04 13:29:18;;;;;;;2.25;0.88;;;;;;;;;;6303237;22;20011;-91
2023/08/04 13:31:44;;;;;;;2.97;1.17;;;;;;;;;;6305520;22;20022;-91
2023/08/04 13:34:10;;;;;;;2.55;1.30;;;;;;;;;;6303836;22;20015;-91
2023/08/04 13:36:36;;;;;;;2.42;0.85;;;;;;;;;;6306936;22;20018;-95
2023/08/04 13:39:02;;;;;;;2.15;0.82;;;;;;;;;;6307769;22;20023;-91
2023/08/04 13:41:28;;;;;;;2.55;0.90;;;;;;;;;;6309206;22;20021;-91
2023/08/04 13:43:54;;;;;;;1.33;0.60;;;;;;;;;;6314968;22;20058;-95
2023/08/04 13:46:21;;;;;;;3.10;1.85;;;;;;;;;;6289267;22;20019;-94
2023/08/04 13:48:51;;;;;;;2.42;1.20;;;;;;;;;;6311608;22;20101;-92
2023/08/04 13:51:17;;;;;;;1.27;1.00;;;;;;;;;;6306974;22;20015;-88
2023/08/04 13:53:43;;;;;;;1.20;1.00;;;;;;;;;;6277453;22;20095;-87
2023/08/04 13:56:09;;;;;;;2.85;1.02;;;;;;;;;;6303393;22;20023;-89
2023/08/04 13:58:35;;;;;;;2.22;0.95;;;;;;;;;;6316908;22;20015;-93
2023/08/04 14:01:02;;;;;;;1.80;0.77;;;;;;;;;;6326620;22;20011;-95
2023/08/04 14:03:28;;;;;;;1.50;1.23;;;;;;;;;;6297537;22;20106;-95
2023/08/04 14:05:58;;;;;;;1.80;0.80;;;;;;;;;;6295608;22;20023;-95
2023/08/04 14:08:24;;;;;;;2.05;0.93;;;;;;;;;;6288749;22;20019;-91
2023/08/04 14:10:51;;;;;;;2.10;1.35;;;;;;;;;;6309513;22;20080;-93
2023/08/04 14:13:17;;;;;;;3.42;1.05;;;;;;;;;;6282477;22;20019;-93
2023/08/04 14:15:43;;;;;;;2.00;1.10;;;;;;;;;;6305186;22;20042;-90
2023/08/04 14:18:09;;;;;;;2.10;1.10;;;;;;;;;;6278475;22;20019;-96
2023/08/04 14:20:35;;;;;;;1.50;0.95;;;;;;;;;;6310241;22;20022;-95
2023/08/04 14:23:01;;;;;;;3.33;1.50;;;;;;;;;;6306835;22;20015;-96
2023/08/04 14:25:28;;;;;;;1.77;1.17;;;;;;;;;;6305744;22;20348;-91
2023/08/04 14:27:54;;;;;;;0.65;0.65;;;;;;;;;;6309621;22;20015;-95
2023/08/04 14:30:20;;;;;;;2.38;1.27;;;;;;;;;;6305819;22;20016;-88
2023/08/04 14:32:46;;;;;;;3.47;1.52;;;;;;;;;;6304986;22;20090;-89
2023/08/04 14:35:12;;;;;;;3.92;1.50;;;;;;;;;;6306613;22;20014;-91
2023/08/04 14:37:38;;;;;;;3.30;1.30;;;;;;;;;;6305754;22;20015;-94
2023/08/04 14:40:04;;;;;;;2.55;1.10;;;;;;;;;;6305693;22;20019;-91